Time;durP1;ratioP1;P1;durP2;ratioP2;P2;SDS_P1;SDS_P2;PMS_P1;PMS_P2;Temp;Humidity;BMP_temperature;BMP_pressure;BME280_temperature;BME280_humidity;BME280_pressure;Samples;Min_cycle;Max_cycle;Signal;HPM_P1;HPM_P2
2023/10/25 04:31:20;;;;;;;0.10;0.10;;;13.40;89.20;;;;;;5572855;22;20047;-80
2023/10/25 04:33:46;;;;;;;0.10;0.10;;;13.50;89.10;;;;;;4980203;28;20034;-77
2023/10/25 04:36:12;;;;;;;0.08;0.08;;;13.50;89.00;;;;;;4994643;28;20482;-79
2023/10/25 04:38:37;;;;;;;0.10;0.10;;;13.50;89.00;;;;;;4992685;28;20070;-77
2023/10/25 04:41:03;;;;;;;0.00;0.00;;;13.50;89.10;;;;;;4999543;28;20022;-80
2023/10/25 04:43:28;;;;;;;0.10;0.10;;;13.50;89.00;;;;;;4999899;28;20490;-77
2023/10/25 04:45:54;;;;;;;0.10;0.10;;;13.50;89.00;;;;;;4982621;28;20449;-78
2023/10/25 04:48:20;;;;;;;0.10;0.10;;;13.50;89.00;;;;;;4998879;28;20027;-78
2023/10/25 04:50:45;;;;;;;0.10;0.10;;;13.50;89.00;;;;;;4979093;28;20110;-78
2023/10/25 04:53:11;;;;;;;0.10;0.10;;;13.50;89.00;;;;;;4999759;28;20038;-80
2023/10/25 04:55:37;;;;;;;0.00;0.00;;;13.40;89.00;;;;;;5000048;28;20029;-77
2023/10/25 04:58:04;;;;;;;0.10;0.10;;;13.50;89.10;;;;;;4999051;28;20038;-77
2023/10/25 05:00:31;;;;;;;0.00;0.00;;;13.40;89.10;;;;;;4981052;28;20026;-76
2023/10/25 05:02:57;;;;;;;0.00;0.00;;;13.50;89.20;;;;;;4999190;28;20057;-78
2023/10/25 05:05:23;;;;;;;0.10;0.10;;;13.50;88.90;;;;;;4994981;28;20517;-78
2023/10/25 05:07:49;;;;;;;0.10;0.10;;;13.50;89.10;;;;;;4999981;28;20033;-79
2023/10/25 05:10:15;;;;;;;0.00;0.00;;;13.50;89.00;;;;;;4999228;28;20096;-77
2023/10/25 05:12:43;;;;;;;0.00;0.00;;;13.50;88.90;;;;;;4999263;28;20031;-75
2023/10/25 05:15:10;;;;;;;0.10;0.10;;;13.50;88.90;;;;;;4982565;28;20034;-75
2023/10/25 05:17:37;;;;;;;0.13;0.10;;;13.50;89.10;;;;;;4998301;28;20509;-77
2023/10/25 05:20:07;;;;;;;0.10;0.10;;;13.50;89.00;;;;;;4981259;28;20065;-76
2023/10/25 05:22:46;;;;;;;0.10;0.10;;;13.50;89.10;;;;;;4981521;28;20085;-75
2023/10/25 05:25:12;;;;;;;0.10;0.10;;;13.50;89.00;;;;;;4994818;28;20413;-77
2023/10/25 05:27:38;;;;;;;0.10;0.10;;;13.50;88.90;;;;;;4997502;28;20027;-77
2023/10/25 05:30:07;;;;;;;0.05;0.05;;;13.50;89.00;;;;;;4998779;28;20404;-77
2023/10/25 05:32:35;;;;;;;0.08;0.08;;;13.50;89.10;;;;;;4997986;28;20414;-78
2023/10/25 05:35:02;;;;;;;0.10;0.10;;;13.60;89.10;;;;;;4981828;28;20092;-77
2023/10/25 05:37:29;;;;;;;0.05;0.05;;;13.50;89.10;;;;;;4998403;28;20061;-78
2023/10/25 05:39:55;;;;;;;0.05;0.05;;;13.50;89.20;;;;;;4995692;28;20030;-77
2023/10/25 05:42:23;;;;;;;0.10;0.10;;;13.50;89.20;;;;;;4979285;28;20029;-77
2023/10/25 05:44:59;;;;;;;0.10;0.10;;;13.50;89.20;;;;;;4997406;28;20031;-77
2023/10/25 05:47:25;;;;;;;0.10;0.10;;;13.50;89.10;;;;;;4997829;28;20106;-78
2023/10/25 05:49:51;;;;;;;0.05;0.05;;;13.50;89.20;;;;;;4998693;28;20441;-79
2023/10/25 05:52:18;;;;;;;0.10;0.10;;;13.50;89.20;;;;;;4977408;28;20086;-79
2023/10/25 05:54:44;;;;;;;0.05;0.05;;;13.50;89.20;;;;;;4957848;28;20035;-79
2023/10/25 05:57:10;;;;;;;0.10;0.10;;;13.50;89.30;;;;;;4979546;28;20023;-78
2023/10/25 05:59:36;;;;;;;0.00;0.00;;;13.50;89.40;;;;;;4979821;28;20044;-78
2023/10/25 06:02:01;;;;;;;0.00;0.00;;;13.50;89.40;;;;;;5000331;28;20101;-78
2023/10/25 06:04:30;;;;;;;0.10;0.10;;;13.50;89.30;;;;;;4999491;28;20054;-78
2023/10/25 06:06:56;;;;;;;0.10;0.10;;;13.50;89.40;;;;;;4996335;28;20026;-79
2023/10/25 06:09:22;;;;;;;0.10;0.10;;;13.50;89.30;;;;;;4977702;28;20493;-78
2023/10/25 06:11:48;;;;;;;0.10;0.10;;;13.50;89.30;;;;;;4997031;28;20093;-78
2023/10/25 06:14:14;;;;;;;0.10;0.10;;;13.60;89.30;;;;;;4998411;28;20050;-78
2023/10/25 06:16:40;;;;;;;0.10;0.10;;;13.50;89.40;;;;;;4994851;28;20027;-78
2023/10/25 06:19:06;;;;;;;0.10;0.10;;;13.50;89.50;;;;;;4997852;28;20072;-79
2023/10/25 06:21:32;;;;;;;0.00;0.00;;;13.50;89.50;;;;;;4997682;28;20034;-79
2023/10/25 06:23:57;;;;;;;0.10;0.10;;;13.40;89.60;;;;;;4972038;28;20026;-79
2023/10/25 06:26:24;;;;;;;0.10;0.10;;;13.40;89.80;;;;;;4980422;28;20022;-79
2023/10/25 06:28:50;;;;;;;0.10;0.10;;;13.40;89.80;;;;;;4997532;28;20053;-79
2023/10/25 06:31:15;;;;;;;0.10;0.10;;;13.50;89.90;;;;;;4979239;28;20057;-79
2023/10/25 06:33:41;;;;;;;0.10;0.10;;;13.50;90.00;;;;;;4997069;28;20026;-79
2023/10/25 06:36:08;;;;;;;0.10;0.10;;;13.50;90.00;;;;;;4997611;28;20026;-79
2023/10/25 06:38:34;;;;;;;0.10;0.10;;;13.40;90.20;;;;;;4994852;28;20034;-79
2023/10/25 06:41:00;;;;;;;0.10;0.10;;;13.40;90.30;;;;;;4993961;28;20031;-75
2023/10/25 06:43:30;;;;;;;0.10;0.10;;;13.50;90.30;;;;;;4990603;28;20565;-75
2023/10/25 06:45:57;;;;;;;0.10;0.10;;;13.50;90.30;;;;;;4989290;28;20070;-76
2023/10/25 06:48:23;;;;;;;0.10;0.10;;;13.60;90.30;;;;;;4996078;28;20023;-76
2023/10/25 06:50:50;;;;;;;0.10;0.10;;;13.60;90.30;;;;;;4971947;28;20025;-77
2023/10/25 06:53:16;;;;;;;0.10;0.10;;;13.60;90.30;;;;;;4978297;28;20044;-76
2023/10/25 06:55:42;;;;;;;0.10;0.10;;;13.60;90.40;;;;;;4990645;28;20036;-77
2023/10/25 06:58:10;;;;;;;0.10;0.10;;;13.70;90.30;;;;;;4980051;28;20022;-76
2023/10/25 07:00:38;;;;;;;0.10;0.10;;;13.70;90.30;;;;;;4996798;28;20046;-76
2023/10/25 07:03:07;;;;;;;0.10;0.10;;;13.70;90.20;;;;;;4997719;28;20065;-77
2023/10/25 07:05:32;;;;;;;0.10;0.10;;;13.80;90.20;;;;;;4997371;28;20468;-77
2023/10/25 07:07:59;;;;;;;0.08;0.08;;;13.80;90.20;;;;;;4997466;28;20790;-76
2023/10/25 07:10:25;;;;;;;0.10;0.10;;;13.80;90.20;;;;;;4993838;28;20026;-78
2023/10/25 07:12:51;;;;;;;0.10;0.10;;;13.80;90.20;;;;;;4997008;28;20037;-81
2023/10/25 07:15:18;;;;;;;0.10;0.10;;;13.80;90.30;;;;;;4996088;28;20035;-80
2023/10/25 07:17:44;;;;;;;0.10;0.10;;;13.80;90.20;;;;;;4992763;28;20026;-80
2023/10/25 07:20:11;;;;;;;0.10;0.10;;;13.80;90.20;;;;;;4980713;28;20037;-80
2023/10/25 07:22:38;;;;;;;0.10;0.10;;;13.80;90.20;;;;;;4996492;28;20018;-81
2023/10/25 07:25:05;;;;;;;0.10;0.10;;;13.90;90.10;;;;;;4994745;28;20026;-79
2023/10/25 07:27:31;;;;;;;0.10;0.10;;;13.90;90.20;;;;;;4996954;28;20034;-80
2023/10/25 07:29:56;;;;;;;0.10;0.10;;;13.80;90.10;;;;;;4997247;28;20026;-80
2023/10/25 07:32:22;;;;;;;0.10;0.10;;;13.90;90.20;;;;;;4997117;28;20073;-80
2023/10/25 07:34:48;;;;;;;0.10;0.10;;;13.90;90.20;;;;;;4997196;28;20030;-80
2023/10/25 07:37:15;;;;;;;0.10;0.10;;;13.90;90.20;;;;;;4996658;28;20026;-80
2023/10/25 07:39:41;;;;;;;0.00;0.00;;;13.90;90.20;;;;;;4979555;28;20089;-80
2023/10/25 07:42:07;;;;;;;0.10;0.10;;;13.90;90.20;;;;;;4996026;28;20084;-80
2023/10/25 07:44:33;;;;;;;0.10;0.10;;;14.00;90.10;;;;;;4982541;28;20026;-80
2023/10/25 07:46:59;;;;;;;0.00;0.00;;;14.00;90.10;;;;;;4989715;28;20504;-81
2023/10/25 07:49:25;;;;;;;0.10;0.10;;;14.00;90.00;;;;;;4988320;28;20034;-81
2023/10/25 07:51:54;;;;;;;0.00;0.00;;;14.10;89.90;;;;;;4987819;28;20027;-81
2023/10/25 07:54:20;;;;;;;0.10;0.10;;;14.10;89.80;;;;;;5000761;28;20054;-80
2023/10/25 07:56:46;;;;;;;0.10;0.10;;;14.30;89.70;;;;;;4999702;28;20114;-80
2023/10/25 07:59:11;;;;;;;0.00;0.00;;;14.30;89.60;;;;;;4999573;28;20057;-81
2023/10/25 08:01:38;;;;;;;0.10;0.10;;;14.30;89.50;;;;;;4996600;28;20031;-81
2023/10/25 08:04:05;;;;;;;0.10;0.10;;;14.30;89.20;;;;;;4979827;28;20058;-80
2023/10/25 08:06:30;;;;;;;0.00;0.00;;;14.30;89.10;;;;;;4980657;28;20435;-81
2023/10/25 08:08:56;;;;;;;0.10;0.10;;;14.30;88.90;;;;;;5001424;28;20030;-80
2023/10/25 08:11:22;;;;;;;0.10;0.10;;;14.30;88.90;;;;;;5009419;28;20030;-81
2023/10/25 08:13:47;;;;;;;0.10;0.10;;;14.40;88.90;;;;;;4980081;28;20033;-81
2023/10/25 08:16:13;;;;;;;0.10;0.10;;;14.40;88.70;;;;;;5000013;28;20026;-80
2023/10/25 08:18:38;;;;;;;0.10;0.10;;;14.50;88.50;;;;;;4999391;28;20037;-80
2023/10/25 08:21:04;;;;;;;0.10;0.10;;;14.40;88.40;;;;;;5000322;28;20015;-81
2023/10/25 08:23:30;;;;;;;0.00;0.00;;;14.40;88.40;;;;;;5000748;28;20023;-80
2023/10/25 08:26:00;;;;;;;0.10;0.10;;;14.40;88.40;;;;;;4984118;28;20026;-80
2023/10/25 08:28:26;;;;;;;0.10;0.10;;;14.40;88.20;;;;;;4964695;28;20038;-80
2023/10/25 08:30:51;;;;;;;0.10;0.10;;;14.40;88.00;;;;;;4991642;28;20092;-81
2023/10/25 08:33:17;;;;;;;0.10;0.10;;;14.40;88.00;;;;;;4999237;28;20504;-81
2023/10/25 08:35:43;;;;;;;0.10;0.10;;;14.50;87.80;;;;;;4999212;28;20034;-80
2023/10/25 08:38:09;;;;;;;0.10;0.10;;;14.50;87.80;;;;;;4999390;28;20556;-80
2023/10/25 08:40:39;;;;;;;0.10;0.10;;;14.50;87.50;;;;;;4998590;28;20085;-80
2023/10/25 08:43:05;;;;;;;0.10;0.10;;;14.50;87.90;;;;;;4981668;28;20126;-80
2023/10/25 08:45:34;;;;;;;0.08;0.08;;;14.60;87.80;;;;;;4975855;28;20055;-80
2023/10/25 08:48:04;;;;;;;0.00;0.00;;;14.60;87.80;;;;;;4979257;28;20076;-80
2023/10/25 08:50:32;;;;;;;0.10;0.10;;;14.50;87.50;;;;;;4999379;28;20061;-80
2023/10/25 08:52:59;;;;;;;0.05;0.05;;;14.60;87.80;;;;;;4998105;28;20077;-80
2023/10/25 08:55:25;;;;;;;0.10;0.10;;;14.50;87.50;;;;;;4995616;28;20026;-80
2023/10/25 08:57:59;;;;;;;0.10;0.10;;;14.50;87.40;;;;;;4998723;28;20026;-80
2023/10/25 09:00:28;;;;;;;0.10;0.10;;;14.50;87.50;;;;;;4996640;28;20030;-80
2023/10/25 09:02:54;;;;;;;0.10;0.10;;;14.50;87.40;;;;;;4999052;28;20385;-80
2023/10/25 09:05:19;;;;;;;0.10;0.10;;;14.50;87.30;;;;;;4998368;28;20038;-80
2023/10/25 09:07:45;;;;;;;0.10;0.10;;;14.50;87.40;;;;;;4999071;28;20025;-81
2023/10/25 09:10:19;;;;;;;0.10;0.10;;;14.60;87.30;;;;;;4998605;28;20046;-80
2023/10/25 09:12:45;;;;;;;0.10;0.10;;;14.60;86.90;;;;;;4972396;28;20114;-81
2023/10/25 09:15:11;;;;;;;0.00;0.00;;;14.70;87.10;;;;;;4977598;28;20533;-80
2023/10/25 09:17:37;;;;;;;0.10;0.10;;;14.70;86.60;;;;;;4995166;28;20084;-80
2023/10/25 09:20:07;;;;;;;0.10;0.10;;;14.70;86.70;;;;;;4997948;28;20022;-80
2023/10/25 09:22:33;;;;;;;0.10;0.10;;;14.70;86.10;;;;;;4988305;28;20023;-80
2023/10/25 09:25:01;;;;;;;0.10;0.10;;;14.70;86.30;;;;;;4985925;28;20479;-80
2023/10/25 09:27:28;;;;;;;0.10;0.10;;;14.80;86.20;;;;;;4973952;28;20061;-81
2023/10/25 09:30:09;;;;;;;0.00;0.00;;;14.80;86.30;;;;;;4991676;28;20034;-80
2023/10/25 09:32:36;;;;;;;0.10;0.10;;;14.80;86.20;;;;;;4963714;28;20051;-79
2023/10/25 09:35:03;;;;;;;0.00;0.00;;;14.80;86.10;;;;;;4979581;28;20427;-76
2023/10/25 09:37:28;;;;;;;0.10;0.10;;;14.90;86.10;;;;;;4976926;28;20035;-77
2023/10/25 09:39:54;;;;;;;0.10;0.10;;;14.90;85.90;;;;;;4978965;28;20037;-78
2023/10/25 09:42:25;;;;;;;0.10;0.10;;;14.90;85.70;;;;;;4958612;28;20027;-78
2023/10/25 09:44:57;;;;;;;0.00;0.00;;;15.00;85.90;;;;;;4976656;28;20051;-78
2023/10/25 09:47:28;;;;;;;0.10;0.10;;;15.00;85.70;;;;;;4975903;28;20106;-77
2023/10/25 09:50:02;;;;;;;0.00;0.00;;;15.00;85.40;;;;;;4978549;28;20100;-77
2023/10/25 09:52:30;;;;;;;0.10;0.10;;;15.00;85.20;;;;;;4978232;28;20103;-77
2023/10/25 09:55:08;;;;;;;0.10;0.10;;;15.00;85.20;;;;;;4978443;28;20030;-78
2023/10/25 09:57:36;;;;;;;0.10;0.10;;;15.00;85.20;;;;;;4977337;28;20026;-77
2023/10/25 10:00:05;;;;;;;0.10;0.10;;;15.00;85.00;;;;;;4977284;28;20022;-78
2023/10/25 10:03:02;;;;;;;0.10;0.10;;;15.00;85.10;;;;;;4979135;28;20035;-78
2023/10/25 10:05:32;;;;;;;0.05;0.05;;;15.10;85.40;;;;;;4977675;28;20034;-77
2023/10/25 10:08:08;;;;;;;0.10;0.10;;;15.20;85.30;;;;;;4977440;28;20474;-78
2023/10/25 10:10:45;;;;;;;0.10;0.10;;;15.20;84.90;;;;;;4977890;28;20026;-78
2023/10/25 10:13:18;;;;;;;0.10;0.10;;;15.20;84.70;;;;;;4976808;28;20037;-77
2023/10/25 10:16:05;;;;;;;0.10;0.10;;;15.20;84.80;;;;;;4976324;28;20038;-78
2023/10/25 10:18:45;;;;;;;0.10;0.10;;;15.20;84.80;;;;;;4974381;28;20146;-78
2023/10/25 10:21:13;;;;;;;0.10;0.10;;;15.20;84.70;;;;;;4968584;28;20030;-77
2023/10/25 10:23:49;;;;;;;0.10;0.10;;;15.10;84.70;;;;;;4958577;28;20027;-77
2023/10/25 10:26:40;;;;;;;0.00;0.00;;;15.00;84.60;;;;;;4971458;28;20038;-77
2023/10/25 10:29:31;;;;;;;0.10;0.10;;;15.10;84.70;;;;;;4971342;28;20042;-77
2023/10/25 10:31:58;;;;;;;0.00;0.00;;;15.20;84.50;;;;;;4987222;28;20058;-78
2023/10/25 10:34:40;;;;;;;0.00;0.00;;;15.10;83.70;;;;;;4995780;28;20034;-78
2023/10/25 10:37:13;;;;;;;0.10;0.10;;;15.00;84.40;;;;;;4996429;28;20034;-79
2023/10/25 10:39:59;;;;;;;0.00;0.00;;;15.00;84.70;;;;;;4995027;28;20042;-80
2023/10/25 10:42:38;;;;;;;0.00;0.00;;;14.90;84.80;;;;;;4990259;28;20030;-79
2023/10/25 10:45:05;;;;;;;0.00;0.00;;;14.90;85.10;;;;;;4987258;28;20030;-79
2023/10/25 10:47:39;;;;;;;0.10;0.10;;;14.90;85.10;;;;;;4994910;28;20555;-80
2023/10/25 10:50:12;;;;;;;0.00;0.00;;;14.80;84.90;;;;;;4996561;28;20050;-79
2023/10/25 10:52:39;;;;;;;0.10;0.10;;;14.90;84.80;;;;;;4990935;28;20090;-80
2023/10/25 10:55:06;;;;;;;0.10;0.10;;;15.00;84.70;;;;;;4993884;28;20030;-79
2023/10/25 10:57:32;;;;;;;0.10;0.10;;;15.20;84.90;;;;;;4995122;28;20062;-79
2023/10/25 10:59:57;;;;;;;0.10;0.10;;;15.30;84.30;;;;;;4985084;28;20049;-79
2023/10/25 11:02:25;;;;;;;0.10;0.10;;;15.50;83.80;;;;;;4993106;28;20062;-78
2023/10/25 11:04:51;;;;;;;0.10;0.10;;;15.60;83.00;;;;;;4974251;28;20049;-79
2023/10/25 11:07:17;;;;;;;0.10;0.10;;;15.60;83.00;;;;;;4995057;28;20101;-79
2023/10/25 11:09:44;;;;;;;0.10;0.10;;;15.70;82.90;;;;;;4974253;28;20517;-79
2023/10/25 11:12:10;;;;;;;0.00;0.00;;;15.60;83.00;;;;;;4982805;28;20508;-79
2023/10/25 11:14:44;;;;;;;0.10;0.10;;;15.50;82.60;;;;;;4976077;28;20038;-79
2023/10/25 11:17:10;;;;;;;0.10;0.10;;;15.50;82.80;;;;;;4994515;28;20030;-79
2023/10/25 11:19:36;;;;;;;0.10;0.10;;;15.50;82.80;;;;;;4973692;28;20032;-80
2023/10/25 11:22:01;;;;;;;0.10;0.10;;;15.70;83.00;;;;;;4993441;28;20549;-80
2023/10/25 11:24:27;;;;;;;0.10;0.10;;;15.80;82.60;;;;;;4994677;28;20023;-80
2023/10/25 11:26:53;;;;;;;0.10;0.10;;;15.90;82.00;;;;;;4999270;28;20074;-80
2023/10/25 11:29:22;;;;;;;0.10;0.10;;;15.80;82.00;;;;;;4997851;28;20041;-80
2023/10/25 11:31:50;;;;;;;0.10;0.10;;;15.90;82.00;;;;;;4998045;28;20100;-80
2023/10/25 11:34:19;;;;;;;0.10;0.10;;;15.80;81.20;;;;;;4973361;28;20027;-79
2023/10/25 11:36:47;;;;;;;0.10;0.10;;;15.70;81.40;;;;;;4983913;28;20058;-79
2023/10/25 11:39:13;;;;;;;0.05;0.05;;;15.50;81.30;;;;;;4997042;28;20033;-79
2023/10/25 11:41:39;;;;;;;0.10;0.10;;;15.60;81.70;;;;;;4996312;28;20022;-79
2023/10/25 11:44:06;;;;;;;0.10;0.10;;;15.50;80.80;;;;;;4996202;28;20492;-80
2023/10/25 11:46:41;;;;;;;0.10;0.10;;;15.60;81.60;;;;;;4996337;28;20113;-80
2023/10/25 11:49:07;;;;;;;0.00;0.00;;;15.50;81.50;;;;;;4995180;28;20052;-79
2023/10/25 11:51:35;;;;;;;0.10;0.10;;;15.60;81.40;;;;;;4993927;28;20023;-79
2023/10/25 11:54:02;;;;;;;0.10;0.10;;;15.50;81.40;;;;;;4977349;28;20608;-80
2023/10/25 11:56:28;;;;;;;0.00;0.00;;;15.60;81.90;;;;;;4994937;28;20038;-79
2023/10/25 11:58:53;;;;;;;0.00;0.00;;;15.50;81.40;;;;;;4993280;28;20493;-79
2023/10/25 12:01:19;;;;;;;0.00;0.00;;;15.50;81.00;;;;;;4995118;28;20049;-80
2023/10/25 12:03:45;;;;;;;0.00;0.00;;;15.50;80.90;;;;;;4995983;28;20019;-79
2023/10/25 12:06:11;;;;;;;0.10;0.10;;;15.50;80.60;;;;;;4995650;28;20101;-79
2023/10/25 12:08:40;;;;;;;0.10;0.10;;;15.60;80.60;;;;;;4996273;28;20022;-80
2023/10/25 12:11:10;;;;;;;0.10;0.10;;;15.70;81.10;;;;;;4995887;28;20027;-80
2023/10/25 12:13:39;;;;;;;0.00;0.00;;;15.70;80.80;;;;;;4975449;28;20030;-79
2023/10/25 12:16:06;;;;;;;0.10;0.10;;;15.70;80.40;;;;;;4996147;28;20026;-79
2023/10/25 12:18:36;;;;;;;0.10;0.10;;;15.80;80.20;;;;;;4978430;28;20025;-80
2023/10/25 12:21:04;;;;;;;0.10;0.10;;;15.90;80.10;;;;;;4978054;28;20118;-80
2023/10/25 12:23:30;;;;;;;0.00;0.00;;;16.00;80.20;;;;;;4994006;28;20133;-78
2023/10/25 12:25:56;;;;;;;0.10;0.10;;;16.20;80.10;;;;;;4977007;28;20029;-80
2023/10/25 12:28:22;;;;;;;0.03;0.03;;;16.30;79.10;;;;;;4995946;28;20031;-81
2023/10/25 12:30:49;;;;;;;0.08;0.08;;;16.60;78.90;;;;;;4996924;28;20617;-80
2023/10/25 12:33:14;;;;;;;0.10;0.10;;;16.70;78.30;;;;;;4981895;28;20106;-80
2023/10/25 12:35:41;;;;;;;0.00;0.00;;;16.70;77.20;;;;;;4976729;28;20472;-80
2023/10/25 12:38:07;;;;;;;0.00;0.00;;;16.70;77.80;;;;;;4999199;28;20066;-80
2023/10/25 12:40:33;;;;;;;0.10;0.10;;;16.70;76.90;;;;;;5001983;28;20035;-80
2023/10/25 12:42:59;;;;;;;0.00;0.00;;;16.60;75.50;;;;;;5001021;28;20026;-80
2023/10/25 12:45:25;;;;;;;0.05;0.05;;;16.40;77.20;;;;;;5000271;28;20022;-80
2023/10/25 12:47:50;;;;;;;0.00;0.00;;;16.30;77.50;;;;;;4980894;28;20038;-80
2023/10/25 12:50:16;;;;;;;0.00;0.00;;;16.20;78.10;;;;;;4984910;28;20022;-79
2023/10/25 12:52:42;;;;;;;0.10;0.10;;;16.20;77.50;;;;;;4999458;28;20034;-80
2023/10/25 12:55:09;;;;;;;0.10;0.10;;;16.20;78.60;;;;;;4998275;28;20077;-80
2023/10/25 12:57:35;;;;;;;0.00;0.00;;;16.20;78.10;;;;;;4998896;28;20026;-79
2023/10/25 13:00:02;;;;;;;0.10;0.10;;;16.30;77.80;;;;;;4998374;28;20033;-80
2023/10/25 13:02:28;;;;;;;0.10;0.10;;;16.30;78.20;;;;;;4981024;28;20026;-80
2023/10/25 13:04:53;;;;;;;0.10;0.10;;;16.30;77.70;;;;;;4997869;28;20022;-80
2023/10/25 13:07:19;;;;;;;0.10;0.10;;;16.30;76.90;;;;;;4996625;28;20034;-79
2023/10/25 13:09:45;;;;;;;0.10;0.10;;;16.30;78.00;;;;;;4999133;28;20035;-80
2023/10/25 13:12:11;;;;;;;0.10;0.10;;;16.50;76.60;;;;;;4968383;28;20097;-80
2023/10/25 13:14:36;;;;;;;0.10;0.10;;;16.70;75.40;;;;;;4997431;28;20030;-80
2023/10/25 13:17:02;;;;;;;0.10;0.10;;;17.00;74.40;;;;;;4998193;28;20030;-80
2023/10/25 13:19:30;;;;;;;0.10;0.10;;;17.10;74.70;;;;;;4997702;28;20026;-80
2023/10/25 13:21:56;;;;;;;0.00;0.00;;;17.20;74.20;;;;;;4996850;28;20027;-80
2023/10/25 13:24:23;;;;;;;0.10;0.10;;;17.10;74.10;;;;;;4995294;28;20600;-80
2023/10/25 13:26:49;;;;;;;0.10;0.10;;;17.00;74.40;;;;;;4974847;28;20027;-80
2023/10/25 13:29:14;;;;;;;0.10;0.10;;;16.90;75.10;;;;;;4999211;28;20026;-80
2023/10/25 13:31:40;;;;;;;0.00;0.00;;;16.80;74.70;;;;;;4998799;28;20415;-79
2023/10/25 13:34:06;;;;;;;0.00;0.00;;;16.70;74.90;;;;;;4995196;28;20030;-79
2023/10/25 13:36:31;;;;;;;0.00;0.00;;;16.70;75.10;;;;;;4998293;28;20030;-79
2023/10/25 13:38:57;;;;;;;0.00;0.00;;;16.50;74.80;;;;;;4998597;28;20040;-80
2023/10/25 13:41:23;;;;;;;0.10;0.10;;;16.50;75.70;;;;;;4997465;28;20038;-79
2023/10/25 13:43:48;;;;;;;0.10;0.10;;;16.40;75.20;;;;;;4997132;28;20033;-80
2023/10/25 13:46:14;;;;;;;0.00;0.00;;;16.30;75.30;;;;;;4982210;28;20022;-80
2023/10/25 13:48:41;;;;;;;0.10;0.10;;;16.30;75.50;;;;;;4981574;28;20038;-80
2023/10/25 13:51:07;;;;;;;0.00;0.00;;;16.30;75.10;;;;;;4988734;28;20049;-80
2023/10/25 13:53:32;;;;;;;0.00;0.00;;;16.20;76.10;;;;;;4980321;28;20453;-79
2023/10/25 13:55:58;;;;;;;0.10;0.10;;;16.20;75.70;;;;;;4978873;28;20386;-79
2023/10/25 13:58:24;;;;;;;0.10;0.10;;;16.20;76.20;;;;;;4996401;28;20038;-80
2023/10/25 14:00:50;;;;;;;0.10;0.10;;;16.20;76.90;;;;;;4998038;28;20030;-80
2023/10/25 14:03:16;;;;;;;0.10;0.10;;;16.30;76.60;;;;;;4996340;28;20085;-80
2023/10/25 14:05:42;;;;;;;0.10;0.10;;;16.30;76.10;;;;;;4998543;28;20030;-80
2023/10/25 14:08:10;;;;;;;0.10;0.10;;;16.40;76.30;;;;;;4998192;28;20101;-79
2023/10/25 14:10:49;;;;;;;0.10;0.10;;;16.40;76.20;;;;;;4997722;28;20045;-79
2023/10/25 14:13:15;;;;;;;0.10;0.10;;;16.40;76.40;;;;;;4996326;28;20442;-79
2023/10/25 14:15:41;;;;;;;0.10;0.10;;;16.40;76.20;;;;;;4996458;28;20033;-85
2023/10/25 14:18:13;;;;;;;0.05;0.05;;;16.40;76.60;;;;;;4992691;28;20505;-82
2023/10/25 14:20:39;;;;;;;0.10;0.10;;;16.50;75.70;;;;;;4986335;28;20034;-80
2023/10/25 14:23:06;;;;;;;0.10;0.10;;;16.50;74.70;;;;;;4996593;28;20031;-81
2023/10/25 14:25:36;;;;;;;0.08;0.08;;;16.50;75.60;;;;;;4976695;28;20076;-84
2023/10/25 14:28:02;;;;;;;0.08;0.08;;;16.60;73.60;;;;;;4992167;28;20030;-82
2023/10/25 14:30:28;;;;;;;0.10;0.10;;;16.70;74.10;;;;;;4976648;28;20077;-82
2023/10/25 14:32:53;;;;;;;0.10;0.10;;;16.80;74.50;;;;;;4997436;28;20038;-81
2023/10/25 14:35:19;;;;;;;0.10;0.10;;;17.00;73.30;;;;;;4996729;28;20448;-82
2023/10/25 14:37:44;;;;;;;0.10;0.10;;;17.10;73.00;;;;;;4993439;28;20030;-82
2023/10/25 14:40:11;;;;;;;0.10;0.10;;;17.10;73.20;;;;;;4993571;28;20045;-81
2023/10/25 14:42:36;;;;;;;0.10;0.10;;;17.10;72.80;;;;;;4984804;28;20030;-82
2023/10/25 14:45:03;;;;;;;0.00;0.00;;;17.00;72.00;;;;;;4996014;28;20030;-78
2023/10/25 14:47:28;;;;;;;0.10;0.10;;;17.00;72.70;;;;;;4994346;28;20026;-79
2023/10/25 14:49:55;;;;;;;0.10;0.10;;;17.00;72.40;;;;;;4990382;28;20029;-79
2023/10/25 14:52:21;;;;;;;0.00;0.00;;;17.00;72.90;;;;;;4988541;28;20029;-79
2023/10/25 14:54:48;;;;;;;0.00;0.00;;;17.00;73.30;;;;;;4996069;28;20101;-78
2023/10/25 14:57:14;;;;;;;0.10;0.10;;;16.90;72.40;;;;;;4990129;28;20032;-79
2023/10/25 14:59:39;;;;;;;0.10;0.10;;;16.80;72.80;;;;;;4995419;28;20500;-79
2023/10/25 15:02:05;;;;;;;0.10;0.10;;;16.80;72.70;;;;;;4985152;28;20034;-79
2023/10/25 15:04:31;;;;;;;0.10;0.10;;;16.80;72.70;;;;;;4990761;28;20020;-78
2023/10/25 15:06:57;;;;;;;0.10;0.10;;;16.70;73.70;;;;;;4978269;28;20038;-79
2023/10/25 15:09:23;;;;;;;0.10;0.10;;;16.50;74.00;;;;;;4996194;28;20026;-78
2023/10/25 15:11:48;;;;;;;0.00;0.00;;;16.40;74.10;;;;;;4990768;28;20022;-78
2023/10/25 15:14:14;;;;;;;0.10;0.10;;;16.40;74.00;;;;;;4992802;28;20438;-78
2023/10/25 15:16:42;;;;;;;0.00;0.00;;;16.30;74.40;;;;;;4990744;28;20085;-78
2023/10/25 15:19:07;;;;;;;0.00;0.00;;;16.30;74.70;;;;;;4978412;28;20133;-78
2023/10/25 15:21:33;;;;;;;0.00;0.00;;;16.20;75.20;;;;;;4990261;28;20062;-78
2023/10/25 15:23:59;;;;;;;0.00;0.00;;;16.20;75.10;;;;;;4994412;28;20022;-79
2023/10/25 15:26:25;;;;;;;0.00;0.00;;;16.20;75.40;;;;;;4990384;28;20675;-79
2023/10/25 15:28:50;;;;;;;0.10;0.10;;;16.20;75.40;;;;;;4978952;28;20058;-78
2023/10/25 15:31:20;;;;;;;0.00;0.00;;;16.20;75.30;;;;;;4993224;28;20053;-79
2023/10/25 15:33:46;;;;;;;0.00;0.00;;;16.20;75.50;;;;;;4996473;28;20018;-78
2023/10/25 15:36:11;;;;;;;0.03;0.03;;;16.10;75.50;;;;;;4977826;28;20117;-78
2023/10/25 15:38:37;;;;;;;0.10;0.10;;;16.00;75.60;;;;;;4997262;28;20077;-79
2023/10/25 15:41:19;;;;;;;0.00;0.00;;;16.00;75.40;;;;;;4994597;28;20062;-79
2023/10/25 15:43:45;;;;;;;0.00;0.00;;;15.90;75.40;;;;;;4989944;28;20077;-78
2023/10/25 15:46:11;;;;;;;0.10;0.10;;;15.80;75.40;;;;;;4991385;28;20113;-78
2023/10/25 15:48:47;;;;;;;0.10;0.10;;;15.80;76.00;;;;;;4996065;28;20064;-78
2023/10/25 15:51:13;;;;;;;0.00;0.00;;;15.80;76.10;;;;;;4989854;28;20133;-79
2023/10/25 15:53:45;;;;;;;0.00;0.00;;;15.70;76.80;;;;;;4981871;28;20026;-78
2023/10/25 15:56:15;;;;;;;0.10;0.10;;;15.70;77.00;;;;;;4976385;28;20066;-79
2023/10/25 15:58:42;;;;;;;0.10;0.10;;;15.70;77.70;;;;;;4988600;28;20026;-78
2023/10/25 16:01:16;;;;;;;0.00;0.00;;;15.70;77.60;;;;;;4973724;28;20037;-78
2023/10/25 16:03:42;;;;;;;0.00;0.00;;;15.60;77.60;;;;;;4975268;28;20114;-78
2023/10/25 16:06:09;;;;;;;0.10;0.10;;;15.70;77.80;;;;;;4995188;28;20126;-78
2023/10/25 16:08:39;;;;;;;0.00;0.00;;;15.70;77.80;;;;;;4999390;28;20536;-78
2023/10/25 16:11:06;;;;;;;0.00;0.00;;;15.70;77.80;;;;;;4999282;28;20045;-79
2023/10/25 16:13:33;;;;;;;0.00;0.00;;;15.70;78.10;;;;;;4978804;28;20117;-77
2023/10/25 16:16:06;;;;;;;0.00;0.00;;;15.70;77.80;;;;;;4996919;28;20053;-78
2023/10/25 16:18:36;;;;;;;0.10;0.10;;;15.70;78.10;;;;;;4991767;28;20027;-76
2023/10/25 16:21:03;;;;;;;0.10;0.10;;;15.70;78.40;;;;;;4996624;28;20117;-78
2023/10/25 16:23:30;;;;;;;0.05;0.05;;;15.70;78.10;;;;;;4992906;28;20500;-77
2023/10/25 16:25:57;;;;;;;0.10;0.10;;;15.70;77.90;;;;;;4999175;28;20037;-81
2023/10/25 16:28:22;;;;;;;0.10;0.10;;;15.60;78.20;;;;;;4989876;28;20027;-77
2023/10/25 16:30:48;;;;;;;0.00;0.00;;;15.60;78.30;;;;;;4998720;28;20098;-77
2023/10/25 16:33:15;;;;;;;0.00;0.00;;;15.50;78.50;;;;;;4998761;28;20497;-77
2023/10/25 16:35:40;;;;;;;0.00;0.00;;;15.50;78.30;;;;;;4994802;28;20034;-77
2023/10/25 16:38:10;;;;;;;0.10;0.10;;;15.50;78.70;;;;;;4999723;28;20465;-77
2023/10/25 16:40:36;;;;;;;0.05;0.05;;;15.50;78.50;;;;;;4994620;28;20030;-77
2023/10/25 16:43:05;;;;;;;0.10;0.10;;;15.50;78.50;;;;;;4999318;28;20018;-77
2023/10/25 16:45:34;;;;;;;0.10;0.10;;;15.50;78.60;;;;;;4981245;28;20031;-77
2023/10/25 16:48:02;;;;;;;0.00;0.00;;;15.50;78.90;;;;;;4996791;28;20035;-77
2023/10/25 16:50:28;;;;;;;0.10;0.10;;;15.50;79.00;;;;;;4981305;28;20022;-77
2023/10/25 16:52:55;;;;;;;0.00;0.00;;;15.50;78.90;;;;;;4998336;28;20050;-77
2023/10/25 16:55:21;;;;;;;0.00;0.00;;;15.50;78.70;;;;;;4999318;28;20097;-77
2023/10/25 16:57:47;;;;;;;0.00;0.00;;;15.40;78.60;;;;;;4976176;28;20100;-81
2023/10/25 17:00:13;;;;;;;0.00;0.00;;;15.40;78.60;;;;;;4997848;28;20019;-81
2023/10/25 17:02:38;;;;;;;0.00;0.00;;;15.40;78.90;;;;;;4997726;28;20037;-76
2023/10/25 17:05:04;;;;;;;0.00;0.00;;;15.40;79.30;;;;;;4999167;28;20100;-79
2023/10/25 17:07:30;;;;;;;0.10;0.10;;;15.40;79.50;;;;;;4988260;28;20038;-78
2023/10/25 17:09:56;;;;;;;0.08;0.08;;;15.40;79.30;;;;;;4997395;28;20034;-77
2023/10/25 17:12:22;;;;;;;0.10;0.10;;;15.40;79.70;;;;;;4993936;28;20023;-76
2023/10/25 17:14:49;;;;;;;0.10;0.10;;;15.30;79.80;;;;;;4998740;28;20037;-77
2023/10/25 17:17:18;;;;;;;0.05;0.05;;;15.30;79.80;;;;;;4990988;28;20467;-78
2023/10/25 17:19:44;;;;;;;0.00;0.00;;;15.30;79.90;;;;;;4998242;28;20029;-80